sensor_id;sensor_type;location;lat;lon;timestamp;P1;durP1;ratioP1;P2;durP2;ratioP2
3891;SDS011;1961;48.194;16.370;2023-07-29T00:00:57;42.47;;;5.60;;
3891;SDS011;1961;48.194;16.370;2023-07-29T00:03:25;43.77;;;6.50;;
3891;SDS011;1961;48.194;16.370;2023-07-29T00:05:51;42.93;;;5.70;;
3891;SDS011;1961;48.194;16.370;2023-07-29T00:08:17;41.97;;;6.03;;
3891;SDS011;1961;48.194;16.370;2023-07-29T00:10:44;42.40;;;6.27;;
3891;SDS011;1961;48.194;16.370;2023-07-29T00:13:10;45.10;;;6.23;;
3891;SDS011;1961;48.194;16.370;2023-07-29T00:15:36;43.13;;;5.97;;
3891;SDS011;1961;48.194;16.370;2023-07-29T00:18:03;42.47;;;6.23;;
3891;SDS011;1961;48.194;16.370;2023-07-29T00:20:29;42.37;;;5.80;;
3891;SDS011;1961;48.194;16.370;2023-07-29T00:22:55;42.70;;;6.20;;
3891;SDS011;1961;48.194;16.370;2023-07-29T00:25:23;42.40;;;6.20;;
3891;SDS011;1961;48.194;16.370;2023-07-29T00:27:49;43.07;;;6.57;;
3891;SDS011;1961;48.194;16.370;2023-07-29T00:30:15;42.10;;;5.87;;
3891;SDS011;1961;48.194;16.370;2023-07-29T00:32:42;43.10;;;6.20;;
3891;SDS011;1961;48.194;16.370;2023-07-29T00:35:08;42.67;;;6.30;;
3891;SDS011;1961;48.194;16.370;2023-07-29T00:37:35;41.87;;;5.97;;
3891;SDS011;1961;48.194;16.370;2023-07-29T00:40:03;47.67;;;6.17;;
3891;SDS011;1961;48.194;16.370;2023-07-29T00:42:29;41.80;;;5.70;;
3891;SDS011;1961;48.194;16.370;2023-07-29T00:44:56;44.07;;;7.23;;
3891;SDS011;1961;48.194;16.370;2023-07-29T00:47:22;42.40;;;6.10;;
3891;SDS011;1961;48.194;16.370;2023-07-29T00:49:48;42.73;;;5.70;;
3891;SDS011;1961;48.194;16.370;2023-07-29T00:52:15;43.83;;;6.20;;
3891;SDS011;1961;48.194;16.370;2023-07-29T00:54:41;44.90;;;6.37;;
3891;SDS011;1961;48.194;16.370;2023-07-29T00:57:08;42.10;;;6.10;;
3891;SDS011;1961;48.194;16.370;2023-07-29T00:59:36;43.53;;;6.47;;
3891;SDS011;1961;48.194;16.370;2023-07-29T01:02:04;41.97;;;5.73;;
3891;SDS011;1961;48.194;16.370;2023-07-29T01:04:30;45.30;;;6.97;;
3891;SDS011;1961;48.194;16.370;2023-07-29T01:09:25;42.17;;;6.17;;
3891;SDS011;1961;48.194;16.370;2023-07-29T01:16:55;43.60;;;6.30;;
3891;SDS011;1961;48.194;16.370;2023-07-29T01:19:27;43.53;;;6.43;;
3891;SDS011;1961;48.194;16.370;2023-07-29T01:22:00;44.10;;;6.70;;
3891;SDS011;1961;48.194;16.370;2023-07-29T01:24:28;42.60;;;5.83;;
3891;SDS011;1961;48.194;16.370;2023-07-29T01:26:54;43.37;;;6.10;;
3891;SDS011;1961;48.194;16.370;2023-07-29T01:29:20;42.43;;;6.27;;
3891;SDS011;1961;48.194;16.370;2023-07-29T01:31:47;41.70;;;6.03;;
3891;SDS011;1961;48.194;16.370;2023-07-29T01:37:00;45.27;;;6.40;;
3891;SDS011;1961;48.194;16.370;2023-07-29T01:39:29;42.73;;;6.33;;
3891;SDS011;1961;48.194;16.370;2023-07-29T01:41:57;43.83;;;6.40;;
3891;SDS011;1961;48.194;16.370;2023-07-29T01:44:23;42.30;;;6.07;;
3891;SDS011;1961;48.194;16.370;2023-07-29T01:46:50;42.63;;;6.30;;
3891;SDS011;1961;48.194;16.370;2023-07-29T01:49:17;43.13;;;6.90;;
3891;SDS011;1961;48.194;16.370;2023-07-29T01:51:43;45.40;;;7.10;;
3891;SDS011;1961;48.194;16.370;2023-07-29T01:54:09;43.40;;;6.70;;
3891;SDS011;1961;48.194;16.370;2023-07-29T01:56:35;42.73;;;6.17;;
3891;SDS011;1961;48.194;16.370;2023-07-29T01:59:02;43.27;;;6.37;;
3891;SDS011;1961;48.194;16.370;2023-07-29T02:01:28;42.97;;;6.83;;
3891;SDS011;1961;48.194;16.370;2023-07-29T02:03:56;42.63;;;6.87;;
3891;SDS011;1961;48.194;16.370;2023-07-29T02:06:22;42.47;;;6.10;;
3891;SDS011;1961;48.194;16.370;2023-07-29T02:08:49;42.70;;;6.57;;
3891;SDS011;1961;48.194;16.370;2023-07-29T02:11:15;41.77;;;6.00;;
3891;SDS011;1961;48.194;16.370;2023-07-29T02:13:42;43.40;;;6.60;;
3891;SDS011;1961;48.194;16.370;2023-07-29T02:16:09;41.87;;;5.77;;
3891;SDS011;1961;48.194;16.370;2023-07-29T02:18:35;42.27;;;5.73;;
3891;SDS011;1961;48.194;16.370;2023-07-29T02:21:02;42.40;;;6.00;;
3891;SDS011;1961;48.194;16.370;2023-07-29T02:23:29;45.00;;;5.77;;
3891;SDS011;1961;48.194;16.370;2023-07-29T02:25:55;42.03;;;5.83;;
3891;SDS011;1961;48.194;16.370;2023-07-29T02:28:22;42.10;;;5.47;;
3891;SDS011;1961;48.194;16.370;2023-07-29T02:30:48;41.40;;;5.33;;
3891;SDS011;1961;48.194;16.370;2023-07-29T02:33:34;42.50;;;5.77;;
3891;SDS011;1961;48.194;16.370;2023-07-29T02:36:00;41.87;;;5.50;;
3891;SDS011;1961;48.194;16.370;2023-07-29T02:38:27;42.53;;;5.77;;
3891;SDS011;1961;48.194;16.370;2023-07-29T02:40:53;42.47;;;5.67;;
3891;SDS011;1961;48.194;16.370;2023-07-29T02:43:19;41.80;;;5.60;;
3891;SDS011;1961;48.194;16.370;2023-07-29T02:45:45;41.90;;;5.50;;
3891;SDS011;1961;48.194;16.370;2023-07-29T02:48:11;42.03;;;5.63;;
3891;SDS011;1961;48.194;16.370;2023-07-29T02:50:38;44.27;;;5.90;;
3891;SDS011;1961;48.194;16.370;2023-07-29T02:53:04;42.60;;;5.83;;
3891;SDS011;1961;48.194;16.370;2023-07-29T02:55:30;41.87;;;5.63;;
3891;SDS011;1961;48.194;16.370;2023-07-29T02:57:56;41.10;;;5.07;;
3891;SDS011;1961;48.194;16.370;2023-07-29T03:00:22;41.40;;;5.47;;
3891;SDS011;1961;48.194;16.370;2023-07-29T03:02:49;40.97;;;5.10;;
3891;SDS011;1961;48.194;16.370;2023-07-29T03:05:15;41.80;;;5.27;;
3891;SDS011;1961;48.194;16.370;2023-07-29T03:07:42;42.47;;;4.87;;
3891;SDS011;1961;48.194;16.370;2023-07-29T03:10:09;41.80;;;5.10;;
3891;SDS011;1961;48.194;16.370;2023-07-29T03:12:36;41.80;;;5.40;;
3891;SDS011;1961;48.194;16.370;2023-07-29T03:15:03;41.50;;;5.20;;
3891;SDS011;1961;48.194;16.370;2023-07-29T03:17:30;40.90;;;4.73;;
3891;SDS011;1961;48.194;16.370;2023-07-29T03:19:56;41.50;;;5.00;;
3891;SDS011;1961;48.194;16.370;2023-07-29T03:22:22;42.27;;;5.00;;
3891;SDS011;1961;48.194;16.370;2023-07-29T03:24:48;42.17;;;5.60;;
3891;SDS011;1961;48.194;16.370;2023-07-29T03:27:15;41.67;;;4.90;;
3891;SDS011;1961;48.194;16.370;2023-07-29T03:29:41;41.37;;;4.93;;
3891;SDS011;1961;48.194;16.370;2023-07-29T03:32:07;42.87;;;5.37;;
3891;SDS011;1961;48.194;16.370;2023-07-29T03:34:34;41.60;;;5.00;;
3891;SDS011;1961;48.194;16.370;2023-07-29T03:37:00;41.63;;;5.00;;
3891;SDS011;1961;48.194;16.370;2023-07-29T03:39:27;42.70;;;5.53;;
3891;SDS011;1961;48.194;16.370;2023-07-29T03:41:53;44.60;;;5.30;;
3891;SDS011;1961;48.194;16.370;2023-07-29T03:44:19;41.40;;;5.10;;
3891;SDS011;1961;48.194;16.370;2023-07-29T03:46:45;41.37;;;4.90;;
3891;SDS011;1961;48.194;16.370;2023-07-29T03:49:11;42.33;;;5.50;;
3891;SDS011;1961;48.194;16.370;2023-07-29T03:51:38;42.30;;;5.30;;
3891;SDS011;1961;48.194;16.370;2023-07-29T03:54:04;41.97;;;5.17;;
3891;SDS011;1961;48.194;16.370;2023-07-29T03:56:30;41.10;;;4.90;;
3891;SDS011;1961;48.194;16.370;2023-07-29T03:59:03;42.07;;;5.10;;
3891;SDS011;1961;48.194;16.370;2023-07-29T04:01:30;41.97;;;4.80;;
3891;SDS011;1961;48.194;16.370;2023-07-29T04:03:56;41.80;;;5.00;;
3891;SDS011;1961;48.194;16.370;2023-07-29T04:06:22;41.27;;;5.10;;
3891;SDS011;1961;48.194;16.370;2023-07-29T04:08:48;42.93;;;5.40;;
3891;SDS011;1961;48.194;16.370;2023-07-29T04:11:15;42.77;;;5.33;;
3891;SDS011;1961;48.194;16.370;2023-07-29T04:13:41;42.23;;;5.50;;
3891;SDS011;1961;48.194;16.370;2023-07-29T04:16:07;41.60;;;4.97;;
3891;SDS011;1961;48.194;16.370;2023-07-29T04:18:33;43.13;;;5.33;;
3891;SDS011;1961;48.194;16.370;2023-07-29T04:21:00;44.73;;;5.20;;
3891;SDS011;1961;48.194;16.370;2023-07-29T04:23:26;42.50;;;5.20;;
3891;SDS011;1961;48.194;16.370;2023-07-29T04:25:52;42.17;;;5.20;;
3891;SDS011;1961;48.194;16.370;2023-07-29T04:28:19;42.50;;;5.07;;
3891;SDS011;1961;48.194;16.370;2023-07-29T04:30:46;42.77;;;6.00;;
3891;SDS011;1961;48.194;16.370;2023-07-29T04:33:12;42.23;;;5.10;;
3891;SDS011;1961;48.194;16.370;2023-07-29T04:35:38;43.07;;;5.50;;
3891;SDS011;1961;48.194;16.370;2023-07-29T04:38:04;43.67;;;5.60;;
3891;SDS011;1961;48.194;16.370;2023-07-29T04:40:32;43.10;;;5.33;;
3891;SDS011;1961;48.194;16.370;2023-07-29T04:43:00;42.60;;;5.30;;
3891;SDS011;1961;48.194;16.370;2023-07-29T04:45:29;41.30;;;4.97;;
3891;SDS011;1961;48.194;16.370;2023-07-29T04:47:56;41.47;;;5.30;;
3891;SDS011;1961;48.194;16.370;2023-07-29T04:50:22;42.87;;;4.97;;
3891;SDS011;1961;48.194;16.370;2023-07-29T04:52:49;42.77;;;5.23;;
3891;SDS011;1961;48.194;16.370;2023-07-29T04:55:15;42.90;;;5.30;;
3891;SDS011;1961;48.194;16.370;2023-07-29T04:57:41;43.20;;;5.17;;
3891;SDS011;1961;48.194;16.370;2023-07-29T05:00:08;41.20;;;5.07;;
3891;SDS011;1961;48.194;16.370;2023-07-29T05:02:34;41.40;;;4.90;;
3891;SDS011;1961;48.194;16.370;2023-07-29T05:05:01;41.00;;;4.90;;
3891;SDS011;1961;48.194;16.370;2023-07-29T05:07:27;41.83;;;5.00;;
3891;SDS011;1961;48.194;16.370;2023-07-29T05:09:54;45.70;;;5.20;;
3891;SDS011;1961;48.194;16.370;2023-07-29T05:12:20;40.97;;;4.60;;
3891;SDS011;1961;48.194;16.370;2023-07-29T05:14:46;43.23;;;6.77;;
3891;SDS011;1961;48.194;16.370;2023-07-29T05:17:13;41.17;;;4.77;;
3891;SDS011;1961;48.194;16.370;2023-07-29T05:19:39;44.10;;;5.60;;
3891;SDS011;1961;48.194;16.370;2023-07-29T05:22:05;42.00;;;5.40;;
3891;SDS011;1961;48.194;16.370;2023-07-29T05:24:31;42.43;;;5.97;;
3891;SDS011;1961;48.194;16.370;2023-07-29T05:26:58;42.10;;;5.00;;
3891;SDS011;1961;48.194;16.370;2023-07-29T05:29:24;43.40;;;5.40;;
3891;SDS011;1961;48.194;16.370;2023-07-29T05:31:50;41.77;;;4.80;;
3891;SDS011;1961;48.194;16.370;2023-07-29T05:34:16;42.00;;;5.40;;
3891;SDS011;1961;48.194;16.370;2023-07-29T05:36:42;41.33;;;4.90;;
3891;SDS011;1961;48.194;16.370;2023-07-29T05:39:09;42.10;;;5.23;;
3891;SDS011;1961;48.194;16.370;2023-07-29T05:41:37;44.00;;;6.00;;
3891;SDS011;1961;48.194;16.370;2023-07-29T05:44:03;43.63;;;5.33;;
3891;SDS011;1961;48.194;16.370;2023-07-29T05:46:30;42.53;;;5.70;;
3891;SDS011;1961;48.194;16.370;2023-07-29T05:48:56;41.67;;;5.13;;
3891;SDS011;1961;48.194;16.370;2023-07-29T05:51:22;42.07;;;5.40;;
3891;SDS011;1961;48.194;16.370;2023-07-29T05:53:48;41.27;;;4.80;;
3891;SDS011;1961;48.194;16.370;2023-07-29T05:56:15;43.63;;;5.60;;
3891;SDS011;1961;48.194;16.370;2023-07-29T05:58:41;41.07;;;4.57;;
3891;SDS011;1961;48.194;16.370;2023-07-29T06:01:07;41.93;;;4.90;;
3891;SDS011;1961;48.194;16.370;2023-07-29T06:03:33;41.17;;;4.80;;
3891;SDS011;1961;48.194;16.370;2023-07-29T06:06:00;41.37;;;4.80;;
3891;SDS011;1961;48.194;16.370;2023-07-29T06:08:26;41.07;;;4.50;;
3891;SDS011;1961;48.194;16.370;2023-07-29T06:10:53;41.33;;;4.47;;
3891;SDS011;1961;48.194;16.370;2023-07-29T06:13:20;41.20;;;4.93;;
3891;SDS011;1961;48.194;16.370;2023-07-29T06:15:46;42.47;;;4.73;;
3891;SDS011;1961;48.194;16.370;2023-07-29T06:18:12;41.80;;;4.80;;
3891;SDS011;1961;48.194;16.370;2023-07-29T06:20:38;41.30;;;4.97;;
3891;SDS011;1961;48.194;16.370;2023-07-29T06:23:05;40.37;;;4.30;;
3891;SDS011;1961;48.194;16.370;2023-07-29T06:25:31;41.00;;;4.50;;
3891;SDS011;1961;48.194;16.370;2023-07-29T06:27:57;41.30;;;4.37;;
3891;SDS011;1961;48.194;16.370;2023-07-29T06:30:23;40.40;;;4.30;;
3891;SDS011;1961;48.194;16.370;2023-07-29T06:32:49;41.20;;;4.67;;
3891;SDS011;1961;48.194;16.370;2023-07-29T06:35:16;41.83;;;4.73;;
3891;SDS011;1961;48.194;16.370;2023-07-29T06:37:42;41.43;;;4.70;;
3891;SDS011;1961;48.194;16.370;2023-07-29T06:40:09;42.93;;;4.80;;
3891;SDS011;1961;48.194;16.370;2023-07-29T06:42:35;41.90;;;4.20;;
3891;SDS011;1961;48.194;16.370;2023-07-29T06:45:03;40.77;;;4.50;;
3891;SDS011;1961;48.194;16.370;2023-07-29T06:47:29;40.47;;;4.20;;
3891;SDS011;1961;48.194;16.370;2023-07-29T06:49:55;41.70;;;4.07;;
3891;SDS011;1961;48.194;16.370;2023-07-29T06:52:21;40.80;;;4.37;;
3891;SDS011;1961;48.194;16.370;2023-07-29T06:54:48;42.70;;;4.07;;
3891;SDS011;1961;48.194;16.370;2023-07-29T06:57:14;41.20;;;4.20;;
3891;SDS011;1961;48.194;16.370;2023-07-29T06:59:40;40.83;;;4.20;;
3891;SDS011;1961;48.194;16.370;2023-07-29T07:02:07;40.53;;;4.30;;
3891;SDS011;1961;48.194;16.370;2023-07-29T07:04:33;41.97;;;4.70;;
3891;SDS011;1961;48.194;16.370;2023-07-29T07:06:59;41.90;;;4.70;;
3891;SDS011;1961;48.194;16.370;2023-07-29T07:09:25;40.60;;;4.57;;
3891;SDS011;1961;48.194;16.370;2023-07-29T07:11:52;41.30;;;4.37;;
3891;SDS011;1961;48.194;16.370;2023-07-29T07:14:18;42.30;;;4.60;;
3891;SDS011;1961;48.194;16.370;2023-07-29T07:16:44;41.77;;;4.63;;
3891;SDS011;1961;48.194;16.370;2023-07-29T07:19:10;42.00;;;4.77;;
3891;SDS011;1961;48.194;16.370;2023-07-29T07:21:37;41.27;;;4.90;;
3891;SDS011;1961;48.194;16.370;2023-07-29T07:24:03;41.20;;;4.60;;
3891;SDS011;1961;48.194;16.370;2023-07-29T07:26:29;44.33;;;4.70;;
3891;SDS011;1961;48.194;16.370;2023-07-29T07:28:55;41.17;;;4.97;;
3891;SDS011;1961;48.194;16.370;2023-07-29T07:31:22;41.40;;;4.70;;
3891;SDS011;1961;48.194;16.370;2023-07-29T07:33:48;42.43;;;4.73;;
3891;SDS011;1961;48.194;16.370;2023-07-29T07:36:14;41.43;;;4.40;;
3891;SDS011;1961;48.194;16.370;2023-07-29T07:38:41;40.70;;;4.43;;
3891;SDS011;1961;48.194;16.370;2023-07-29T07:41:07;41.20;;;4.63;;
3891;SDS011;1961;48.194;16.370;2023-07-29T07:43:33;42.37;;;4.77;;
3891;SDS011;1961;48.194;16.370;2023-07-29T07:46:00;40.90;;;4.40;;
3891;SDS011;1961;48.194;16.370;2023-07-29T07:48:29;40.77;;;4.20;;
3891;SDS011;1961;48.194;16.370;2023-07-29T07:50:57;40.53;;;4.30;;
3891;SDS011;1961;48.194;16.370;2023-07-29T07:53:24;40.77;;;4.00;;
3891;SDS011;1961;48.194;16.370;2023-07-29T07:55:53;41.40;;;4.73;;
3891;SDS011;1961;48.194;16.370;2023-07-29T07:58:19;41.60;;;4.63;;
3891;SDS011;1961;48.194;16.370;2023-07-29T08:00:45;40.63;;;4.47;;
3891;SDS011;1961;48.194;16.370;2023-07-29T08:03:11;44.37;;;4.53;;
3891;SDS011;1961;48.194;16.370;2023-07-29T08:05:39;41.10;;;4.30;;
3891;SDS011;1961;48.194;16.370;2023-07-29T08:08:05;40.67;;;4.10;;
3891;SDS011;1961;48.194;16.370;2023-07-29T08:10:31;42.50;;;4.10;;
3891;SDS011;1961;48.194;16.370;2023-07-29T08:12:58;41.30;;;4.23;;
3891;SDS011;1961;48.194;16.370;2023-07-29T08:15:24;40.77;;;3.90;;
3891;SDS011;1961;48.194;16.370;2023-07-29T08:17:50;40.80;;;4.13;;
3891;SDS011;1961;48.194;16.370;2023-07-29T08:20:16;43.17;;;4.63;;
3891;SDS011;1961;48.194;16.370;2023-07-29T08:22:43;40.50;;;4.10;;
3891;SDS011;1961;48.194;16.370;2023-07-29T08:25:09;41.00;;;4.63;;
3891;SDS011;1961;48.194;16.370;2023-07-29T08:27:35;40.10;;;4.10;;
3891;SDS011;1961;48.194;16.370;2023-07-29T08:30:01;40.40;;;4.20;;
3891;SDS011;1961;48.194;16.370;2023-07-29T08:32:27;40.30;;;4.27;;
3891;SDS011;1961;48.194;16.370;2023-07-29T08:34:54;41.63;;;4.00;;
3891;SDS011;1961;48.194;16.370;2023-07-29T08:37:20;40.60;;;3.60;;
3891;SDS011;1961;48.194;16.370;2023-07-29T08:39:46;41.10;;;3.90;;
3891;SDS011;1961;48.194;16.370;2023-07-29T08:42:12;40.03;;;3.77;;
3891;SDS011;1961;48.194;16.370;2023-07-29T08:44:42;40.33;;;3.90;;
3891;SDS011;1961;48.194;16.370;2023-07-29T08:47:09;42.77;;;4.23;;
3891;SDS011;1961;48.194;16.370;2023-07-29T08:49:35;42.07;;;4.30;;
3891;SDS011;1961;48.194;16.370;2023-07-29T08:52:01;41.50;;;4.10;;
3891;SDS011;1961;48.194;16.370;2023-07-29T08:54:28;40.57;;;4.30;;
3891;SDS011;1961;48.194;16.370;2023-07-29T08:56:54;42.73;;;4.17;;
3891;SDS011;1961;48.194;16.370;2023-07-29T08:59:21;40.17;;;3.80;;
3891;SDS011;1961;48.194;16.370;2023-07-29T09:01:47;41.47;;;4.33;;
3891;SDS011;1961;48.194;16.370;2023-07-29T09:04:14;40.27;;;3.87;;
3891;SDS011;1961;48.194;16.370;2023-07-29T09:06:40;40.20;;;3.90;;
3891;SDS011;1961;48.194;16.370;2023-07-29T09:09:09;40.03;;;3.70;;
3891;SDS011;1961;48.194;16.370;2023-07-29T09:11:35;42.20;;;4.10;;
3891;SDS011;1961;48.194;16.370;2023-07-29T09:14:01;42.17;;;4.50;;
3891;SDS011;1961;48.194;16.370;2023-07-29T09:16:30;40.57;;;4.43;;
3891;SDS011;1961;48.194;16.370;2023-07-29T09:18:56;40.00;;;3.87;;
3891;SDS011;1961;48.194;16.370;2023-07-29T09:21:26;41.30;;;4.10;;
3891;SDS011;1961;48.194;16.370;2023-07-29T09:23:54;41.90;;;4.13;;
3891;SDS011;1961;48.194;16.370;2023-07-29T09:26:27;42.70;;;4.00;;
3891;SDS011;1961;48.194;16.370;2023-07-29T09:28:57;42.90;;;4.20;;
3891;SDS011;1961;48.194;16.370;2023-07-29T09:31:25;41.10;;;4.20;;
3891;SDS011;1961;48.194;16.370;2023-07-29T09:33:57;41.07;;;4.30;;
3891;SDS011;1961;48.194;16.370;2023-07-29T09:36:24;40.10;;;4.10;;
3891;SDS011;1961;48.194;16.370;2023-07-29T09:38:54;40.50;;;3.80;;
3891;SDS011;1961;48.194;16.370;2023-07-29T09:41:24;41.20;;;3.93;;
3891;SDS011;1961;48.194;16.370;2023-07-29T09:44:00;40.40;;;3.97;;
3891;SDS011;1961;48.194;16.370;2023-07-29T09:46:33;44.37;;;7.90;;
3891;SDS011;1961;48.194;16.370;2023-07-29T09:49:02;41.40;;;4.13;;
3891;SDS011;1961;48.194;16.370;2023-07-29T09:51:28;42.27;;;4.20;;
3891;SDS011;1961;48.194;16.370;2023-07-29T09:53:54;40.30;;;4.03;;
3891;SDS011;1961;48.194;16.370;2023-07-29T09:56:26;45.00;;;4.60;;
3891;SDS011;1961;48.194;16.370;2023-07-29T09:58:52;41.07;;;4.03;;
3891;SDS011;1961;48.194;16.370;2023-07-29T10:01:18;40.47;;;4.20;;
3891;SDS011;1961;48.194;16.370;2023-07-29T10:03:45;42.00;;;4.70;;
3891;SDS011;1961;48.194;16.370;2023-07-29T10:06:11;41.70;;;4.37;;
3891;SDS011;1961;48.194;16.370;2023-07-29T10:08:38;40.37;;;3.87;;
3891;SDS011;1961;48.194;16.370;2023-07-29T10:11:05;40.20;;;3.83;;
3891;SDS011;1961;48.194;16.370;2023-07-29T10:13:33;42.40;;;4.10;;
3891;SDS011;1961;48.194;16.370;2023-07-29T10:15:59;40.23;;;4.00;;
3891;SDS011;1961;48.194;16.370;2023-07-29T10:18:29;43.40;;;4.20;;
3891;SDS011;1961;48.194;16.370;2023-07-29T10:20:59;40.90;;;4.13;;
3891;SDS011;1961;48.194;16.370;2023-07-29T10:23:27;40.67;;;3.90;;
3891;SDS011;1961;48.194;16.370;2023-07-29T10:26:05;40.43;;;3.90;;
3891;SDS011;1961;48.194;16.370;2023-07-29T10:28:32;39.87;;;3.90;;
3891;SDS011;1961;48.194;16.370;2023-07-29T10:30:59;42.47;;;4.07;;
3891;SDS011;1961;48.194;16.370;2023-07-29T10:33:26;40.77;;;3.87;;
3891;SDS011;1961;48.194;16.370;2023-07-29T10:35:53;41.00;;;4.13;;
3891;SDS011;1961;48.194;16.370;2023-07-29T10:38:22;40.30;;;3.70;;
3891;SDS011;1961;48.194;16.370;2023-07-29T10:40:53;40.17;;;3.80;;
3891;SDS011;1961;48.194;16.370;2023-07-29T10:43:29;40.70;;;3.77;;
3891;SDS011;1961;48.194;16.370;2023-07-29T10:46:06;39.90;;;3.60;;
3891;SDS011;1961;48.194;16.370;2023-07-29T10:48:43;39.97;;;3.70;;
3891;SDS011;1961;48.194;16.370;2023-07-29T10:51:22;41.00;;;3.80;;
3891;SDS011;1961;48.194;16.370;2023-07-29T10:53:58;40.40;;;4.10;;
3891;SDS011;1961;48.194;16.370;2023-07-29T10:56:26;39.80;;;3.73;;
3891;SDS011;1961;48.194;16.370;2023-07-29T10:58:54;40.00;;;3.93;;
3891;SDS011;1961;48.194;16.370;2023-07-29T11:01:31;40.10;;;3.80;;
3891;SDS011;1961;48.194;16.370;2023-07-29T11:14:53;40.30;;;4.00;;
3891;SDS011;1961;48.194;16.370;2023-07-29T11:17:22;40.83;;;4.00;;
3891;SDS011;1961;48.194;16.370;2023-07-29T11:19:49;40.93;;;4.30;;
3891;SDS011;1961;48.194;16.370;2023-07-29T11:22:16;40.17;;;4.20;;
3891;SDS011;1961;48.194;16.370;2023-07-29T11:24:42;40.37;;;4.07;;
3891;SDS011;1961;48.194;16.370;2023-07-29T11:27:11;40.67;;;4.30;;
3891;SDS011;1961;48.194;16.370;2023-07-29T11:29:37;40.37;;;4.30;;
3891;SDS011;1961;48.194;16.370;2023-07-29T11:32:04;40.47;;;3.90;;
3891;SDS011;1961;48.194;16.370;2023-07-29T11:34:33;40.67;;;4.30;;
3891;SDS011;1961;48.194;16.370;2023-07-29T11:37:00;41.43;;;4.20;;
3891;SDS011;1961;48.194;16.370;2023-07-29T11:39:26;41.33;;;4.30;;
3891;SDS011;1961;48.194;16.370;2023-07-29T11:41:52;41.07;;;4.50;;
3891;SDS011;1961;48.194;16.370;2023-07-29T11:44:18;39.93;;;4.00;;
3891;SDS011;1961;48.194;16.370;2023-07-29T11:46:45;39.87;;;3.83;;
3891;SDS011;1961;48.194;16.370;2023-07-29T11:49:13;41.13;;;3.80;;
3891;SDS011;1961;48.194;16.370;2023-07-29T11:51:41;40.43;;;4.30;;
3891;SDS011;1961;48.194;16.370;2023-07-29T11:54:08;40.67;;;4.50;;
3891;SDS011;1961;48.194;16.370;2023-07-29T11:56:34;40.80;;;4.57;;
3891;SDS011;1961;48.194;16.370;2023-07-29T11:59:01;42.77;;;6.40;;
3891;SDS011;1961;48.194;16.370;2023-07-29T12:01:28;40.07;;;4.00;;
3891;SDS011;1961;48.194;16.370;2023-07-29T12:03:55;39.80;;;3.90;;
3891;SDS011;1961;48.194;16.370;2023-07-29T12:06:22;40.97;;;4.37;;
3891;SDS011;1961;48.194;16.370;2023-07-29T12:08:52;40.60;;;4.20;;
3891;SDS011;1961;48.194;16.370;2023-07-29T12:11:19;39.80;;;4.03;;
3891;SDS011;1961;48.194;16.370;2023-07-29T12:13:46;40.33;;;4.50;;
3891;SDS011;1961;48.194;16.370;2023-07-29T12:16:16;41.00;;;4.40;;
3891;SDS011;1961;48.194;16.370;2023-07-29T12:18:43;40.70;;;4.03;;
3891;SDS011;1961;48.194;16.370;2023-07-29T12:21:09;40.50;;;4.40;;
3891;SDS011;1961;48.194;16.370;2023-07-29T12:23:36;40.20;;;4.00;;
3891;SDS011;1961;48.194;16.370;2023-07-29T12:26:02;41.60;;;4.43;;
3891;SDS011;1961;48.194;16.370;2023-07-29T12:28:28;40.80;;;4.33;;
3891;SDS011;1961;48.194;16.370;2023-07-29T12:30:54;41.90;;;4.40;;
3891;SDS011;1961;48.194;16.370;2023-07-29T12:33:31;40.60;;;4.30;;
3891;SDS011;1961;48.194;16.370;2023-07-29T12:35:57;40.43;;;4.20;;
3891;SDS011;1961;48.194;16.370;2023-07-29T12:38:27;41.03;;;5.20;;
3891;SDS011;1961;48.194;16.370;2023-07-29T12:40:54;45.20;;;4.63;;
3891;SDS011;1961;48.194;16.370;2023-07-29T12:43:20;41.00;;;4.90;;
3891;SDS011;1961;48.194;16.370;2023-07-29T12:45:48;40.90;;;4.70;;
3891;SDS011;1961;48.194;16.370;2023-07-29T12:48:15;42.97;;;4.40;;
3891;SDS011;1961;48.194;16.370;2023-07-29T12:50:41;41.13;;;4.00;;
3891;SDS011;1961;48.194;16.370;2023-07-29T12:53:07;42.13;;;5.10;;
3891;SDS011;1961;48.194;16.370;2023-07-29T12:55:37;40.70;;;4.50;;
3891;SDS011;1961;48.194;16.370;2023-07-29T12:58:03;42.50;;;4.80;;
3891;SDS011;1961;48.194;16.370;2023-07-29T13:00:29;41.00;;;4.23;;
3891;SDS011;1961;48.194;16.370;2023-07-29T13:02:56;40.57;;;4.20;;
3891;SDS011;1961;48.194;16.370;2023-07-29T13:05:22;41.70;;;4.33;;
3891;SDS011;1961;48.194;16.370;2023-07-29T13:07:48;40.67;;;4.23;;
3891;SDS011;1961;48.194;16.370;2023-07-29T13:10:15;40.40;;;4.07;;
3891;SDS011;1961;48.194;16.370;2023-07-29T13:12:42;42.80;;;4.60;;
3891;SDS011;1961;48.194;16.370;2023-07-29T13:15:08;42.10;;;4.57;;
3891;SDS011;1961;48.194;16.370;2023-07-29T13:17:34;40.03;;;3.70;;
3891;SDS011;1961;48.194;16.370;2023-07-29T13:20:02;41.00;;;4.03;;
3891;SDS011;1961;48.194;16.370;2023-07-29T13:22:29;42.27;;;4.20;;
3891;SDS011;1961;48.194;16.370;2023-07-29T13:24:55;40.67;;;4.13;;
3891;SDS011;1961;48.194;16.370;2023-07-29T13:27:21;42.77;;;4.53;;
3891;SDS011;1961;48.194;16.370;2023-07-29T13:29:49;43.70;;;4.97;;
3891;SDS011;1961;48.194;16.370;2023-07-29T13:32:15;42.40;;;4.63;;
3891;SDS011;1961;48.194;16.370;2023-07-29T13:34:41;42.60;;;4.70;;
3891;SDS011;1961;48.194;16.370;2023-07-29T13:37:07;40.47;;;4.30;;
3891;SDS011;1961;48.194;16.370;2023-07-29T13:39:33;40.20;;;4.20;;
3891;SDS011;1961;48.194;16.370;2023-07-29T13:42:00;40.57;;;4.20;;
3891;SDS011;1961;48.194;16.370;2023-07-29T13:44:26;41.23;;;4.57;;
3891;SDS011;1961;48.194;16.370;2023-07-29T13:46:52;41.50;;;4.67;;
3891;SDS011;1961;48.194;16.370;2023-07-29T13:49:18;40.20;;;4.33;;
3891;SDS011;1961;48.194;16.370;2023-07-29T13:51:45;41.10;;;4.70;;
3891;SDS011;1961;48.194;16.370;2023-07-29T13:54:11;41.30;;;4.63;;
3891;SDS011;1961;48.194;16.370;2023-07-29T13:56:37;41.07;;;4.70;;
3891;SDS011;1961;48.194;16.370;2023-07-29T13:59:03;41.20;;;4.60;;
3891;SDS011;1961;48.194;16.370;2023-07-29T14:01:30;41.07;;;4.50;;
3891;SDS011;1961;48.194;16.370;2023-07-29T14:03:56;40.70;;;4.47;;
3891;SDS011;1961;48.194;16.370;2023-07-29T14:06:22;41.40;;;4.90;;
3891;SDS011;1961;48.194;16.370;2023-07-29T14:08:48;40.90;;;4.60;;
3891;SDS011;1961;48.194;16.370;2023-07-29T14:11:14;41.47;;;4.43;;
3891;SDS011;1961;48.194;16.370;2023-07-29T14:13:40;44.33;;;5.00;;
3891;SDS011;1961;48.194;16.370;2023-07-29T14:16:07;40.50;;;4.70;;
3891;SDS011;1961;48.194;16.370;2023-07-29T14:18:33;41.47;;;4.80;;
3891;SDS011;1961;48.194;16.370;2023-07-29T14:20:59;40.90;;;4.70;;
3891;SDS011;1961;48.194;16.370;2023-07-29T14:23:25;41.37;;;4.50;;
3891;SDS011;1961;48.194;16.370;2023-07-29T14:25:52;41.17;;;4.70;;
3891;SDS011;1961;48.194;16.370;2023-07-29T14:28:18;40.77;;;4.70;;
3891;SDS011;1961;48.194;16.370;2023-07-29T14:30:44;40.90;;;4.50;;
3891;SDS011;1961;48.194;16.370;2023-07-29T14:33:10;40.53;;;4.70;;
3891;SDS011;1961;48.194;16.370;2023-07-29T14:35:36;42.37;;;4.73;;
3891;SDS011;1961;48.194;16.370;2023-07-29T14:38:03;40.30;;;4.50;;
3891;SDS011;1961;48.194;16.370;2023-07-29T14:40:29;41.40;;;4.90;;
3891;SDS011;1961;48.194;16.370;2023-07-29T14:42:55;40.67;;;4.60;;
3891;SDS011;1961;48.194;16.370;2023-07-29T14:45:21;42.87;;;6.20;;
3891;SDS011;1961;48.194;16.370;2023-07-29T14:47:47;42.97;;;4.90;;
3891;SDS011;1961;48.194;16.370;2023-07-29T14:50:13;42.87;;;5.20;;
3891;SDS011;1961;48.194;16.370;2023-07-29T14:52:40;40.70;;;4.90;;
3891;SDS011;1961;48.194;16.370;2023-07-29T14:55:06;41.10;;;4.90;;
3891;SDS011;1961;48.194;16.370;2023-07-29T14:57:32;46.00;;;4.83;;
3891;SDS011;1961;48.194;16.370;2023-07-29T14:59:58;41.43;;;4.80;;
3891;SDS011;1961;48.194;16.370;2023-07-29T15:02:25;42.10;;;5.27;;
3891;SDS011;1961;48.194;16.370;2023-07-29T15:04:51;41.50;;;4.90;;
3891;SDS011;1961;48.194;16.370;2023-07-29T15:07:17;40.90;;;4.90;;